sensor_id;sensor_type;location;lat;lon;timestamp;temperature;humidity
30250;DHT22;17064;47.974;13.826;2022-10-16T00:04:42;13.10;99.90
30250;DHT22;17064;47.974;13.826;2022-10-16T00:09:43;13.10;99.90
30250;DHT22;17064;47.974;13.826;2022-10-16T00:14:44;13.10;99.90
30250;DHT22;17064;47.974;13.826;2022-10-16T00:19:44;13.10;99.90
30250;DHT22;17064;47.974;13.826;2022-10-16T00:24:45;13.00;99.90
30250;DHT22;17064;47.974;13.826;2022-10-16T00:29:50;13.00;99.90
30250;DHT22;17064;47.974;13.826;2022-10-16T00:34:51;13.00;99.90
30250;DHT22;17064;47.974;13.826;2022-10-16T00:39:54;13.00;99.90
30250;DHT22;17064;47.974;13.826;2022-10-16T00:44:56;13.00;99.90
30250;DHT22;17064;47.974;13.826;2022-10-16T00:50:28;13.00;99.90
30250;DHT22;17064;47.974;13.826;2022-10-16T00:55:30;13.00;99.90
30250;DHT22;17064;47.974;13.826;2022-10-16T01:00:31;13.00;99.90
30250;DHT22;17064;47.974;13.826;2022-10-16T01:05:42;13.00;99.90
30250;DHT22;17064;47.974;13.826;2022-10-16T01:10:57;12.90;99.90
30250;DHT22;17064;47.974;13.826;2022-10-16T01:21:17;12.90;99.90
30250;DHT22;17064;47.974;13.826;2022-10-16T01:27:20;13.00;99.90
30250;DHT22;17064;47.974;13.826;2022-10-16T01:32:13;12.90;99.90
30250;DHT22;17064;47.974;13.826;2022-10-16T01:37:25;12.90;99.90
30250;DHT22;17064;47.974;13.826;2022-10-16T01:42:35;12.90;99.90
30250;DHT22;17064;47.974;13.826;2022-10-16T01:47:37;12.80;99.90
30250;DHT22;17064;47.974;13.826;2022-10-16T01:52:43;12.70;99.90
30250;DHT22;17064;47.974;13.826;2022-10-16T01:57:47;12.70;99.90
30250;DHT22;17064;47.974;13.826;2022-10-16T02:02:51;12.60;99.90
30250;DHT22;17064;47.974;13.826;2022-10-16T02:07:53;12.50;99.90
30250;DHT22;17064;47.974;13.826;2022-10-16T02:12:59;12.40;99.90
30250;DHT22;17064;47.974;13.826;2022-10-16T02:18:03;12.30;99.90
30250;DHT22;17064;47.974;13.826;2022-10-16T02:23:04;12.20;99.90
30250;DHT22;17064;47.974;13.826;2022-10-16T02:28:17;12.20;99.90
30250;DHT22;17064;47.974;13.826;2022-10-16T02:33:20;12.30;99.90
30250;DHT22;17064;47.974;13.826;2022-10-16T02:38:23;12.30;99.90
30250;DHT22;17064;47.974;13.826;2022-10-16T02:43:25;12.30;99.90
30250;DHT22;17064;47.974;13.826;2022-10-16T02:48:26;12.20;99.90
30250;DHT22;17064;47.974;13.826;2022-10-16T02:53:27;12.10;99.90
30250;DHT22;17064;47.974;13.826;2022-10-16T02:58:28;12.10;99.90
30250;DHT22;17064;47.974;13.826;2022-10-16T03:03:28;12.10;99.90
30250;DHT22;17064;47.974;13.826;2022-10-16T03:08:29;12.10;99.90
30250;DHT22;17064;47.974;13.826;2022-10-16T03:13:30;12.10;99.90
30250;DHT22;17064;47.974;13.826;2022-10-16T03:18:31;12.00;99.90
30250;DHT22;17064;47.974;13.826;2022-10-16T03:23:31;12.00;99.90
30250;DHT22;17064;47.974;13.826;2022-10-16T03:28:32;11.90;99.90
30250;DHT22;17064;47.974;13.826;2022-10-16T03:33:33;11.90;99.90
30250;DHT22;17064;47.974;13.826;2022-10-16T03:38:34;11.90;99.90
30250;DHT22;17064;47.974;13.826;2022-10-16T03:43:34;11.90;99.90
30250;DHT22;17064;47.974;13.826;2022-10-16T03:48:35;11.90;99.90
30250;DHT22;17064;47.974;13.826;2022-10-16T03:53:36;12.00;99.90
30250;DHT22;17064;47.974;13.826;2022-10-16T03:58:36;12.00;99.90
30250;DHT22;17064;47.974;13.826;2022-10-16T04:03:37;12.00;99.90
30250;DHT22;17064;47.974;13.826;2022-10-16T04:08:38;12.00;99.90
30250;DHT22;17064;47.974;13.826;2022-10-16T04:13:39;12.00;99.90
30250;DHT22;17064;47.974;13.826;2022-10-16T04:18:40;11.90;99.90
30250;DHT22;17064;47.974;13.826;2022-10-16T04:23:42;11.90;99.90
30250;DHT22;17064;47.974;13.826;2022-10-16T04:28:43;11.80;99.90
30250;DHT22;17064;47.974;13.826;2022-10-16T04:33:44;11.80;99.90
30250;DHT22;17064;47.974;13.826;2022-10-16T04:38:44;11.70;99.90
30250;DHT22;17064;47.974;13.826;2022-10-16T04:43:45;11.70;99.90
30250;DHT22;17064;47.974;13.826;2022-10-16T04:48:46;11.50;99.90
30250;DHT22;17064;47.974;13.826;2022-10-16T04:53:47;11.40;99.90
30250;DHT22;17064;47.974;13.826;2022-10-16T04:58:47;11.30;99.90
30250;DHT22;17064;47.974;13.826;2022-10-16T05:03:48;11.30;99.90
30250;DHT22;17064;47.974;13.826;2022-10-16T05:08:49;11.20;99.90
30250;DHT22;17064;47.974;13.826;2022-10-16T05:13:50;11.10;99.90
30250;DHT22;17064;47.974;13.826;2022-10-16T05:18:54;11.00;99.90
30250;DHT22;17064;47.974;13.826;2022-10-16T05:23:55;10.90;99.90
30250;DHT22;17064;47.974;13.826;2022-10-16T05:28:55;10.80;99.90
30250;DHT22;17064;47.974;13.826;2022-10-16T05:34:00;10.80;99.90
30250;DHT22;17064;47.974;13.826;2022-10-16T05:39:01;10.70;99.90
30250;DHT22;17064;47.974;13.826;2022-10-16T05:44:04;10.60;99.90
30250;DHT22;17064;47.974;13.826;2022-10-16T05:49:06;10.60;99.90
30250;DHT22;17064;47.974;13.826;2022-10-16T05:54:07;10.50;99.90
30250;DHT22;17064;47.974;13.826;2022-10-16T05:59:07;10.60;99.90
30250;DHT22;17064;47.974;13.826;2022-10-16T06:04:09;10.60;99.90
30250;DHT22;17064;47.974;13.826;2022-10-16T06:09:10;10.50;99.90
30250;DHT22;17064;47.974;13.826;2022-10-16T06:14:10;10.60;99.90
30250;DHT22;17064;47.974;13.826;2022-10-16T06:19:11;10.60;99.90
30250;DHT22;17064;47.974;13.826;2022-10-16T06:24:12;10.60;99.90
30250;DHT22;17064;47.974;13.826;2022-10-16T06:29:13;10.80;99.90
30250;DHT22;17064;47.974;13.826;2022-10-16T06:34:13;10.80;99.90
30250;DHT22;17064;47.974;13.826;2022-10-16T06:39:14;10.90;99.90
30250;DHT22;17064;47.974;13.826;2022-10-16T06:44:15;11.00;99.90
30250;DHT22;17064;47.974;13.826;2022-10-16T06:49:16;11.10;99.90
30250;DHT22;17064;47.974;13.826;2022-10-16T06:54:21;11.30;99.90
30250;DHT22;17064;47.974;13.826;2022-10-16T06:59:22;11.40;99.90
30250;DHT22;17064;47.974;13.826;2022-10-16T07:04:23;11.50;99.90
30250;DHT22;17064;47.974;13.826;2022-10-16T07:09:24;11.70;99.90
30250;DHT22;17064;47.974;13.826;2022-10-16T07:14:25;11.90;99.90
30250;DHT22;17064;47.974;13.826;2022-10-16T07:19:25;12.00;99.90
30250;DHT22;17064;47.974;13.826;2022-10-16T07:24:26;12.30;99.90
30250;DHT22;17064;47.974;13.826;2022-10-16T07:29:27;12.60;99.90
30250;DHT22;17064;47.974;13.826;2022-10-16T07:34:27;12.90;99.90
30250;DHT22;17064;47.974;13.826;2022-10-16T07:39:28;13.20;99.90
30250;DHT22;17064;47.974;13.826;2022-10-16T07:44:29;13.60;99.90
30250;DHT22;17064;47.974;13.826;2022-10-16T07:49:30;13.90;99.90
30250;DHT22;17064;47.974;13.826;2022-10-16T07:54:30;14.30;99.90
30250;DHT22;17064;47.974;13.826;2022-10-16T07:59:31;14.60;99.90
30250;DHT22;17064;47.974;13.826;2022-10-16T08:04:32;14.90;99.90
30250;DHT22;17064;47.974;13.826;2022-10-16T08:09:32;15.30;99.90
30250;DHT22;17064;47.974;13.826;2022-10-16T08:14:33;15.40;99.90
30250;DHT22;17064;47.974;13.826;2022-10-16T08:19:34;15.70;99.90
30250;DHT22;17064;47.974;13.826;2022-10-16T08:24:35;15.80;99.90
30250;DHT22;17064;47.974;13.826;2022-10-16T08:29:37;16.00;99.90
30250;DHT22;17064;47.974;13.826;2022-10-16T08:34:38;16.20;99.90
30250;DHT22;17064;47.974;13.826;2022-10-16T08:39:39;16.60;99.90
30250;DHT22;17064;47.974;13.826;2022-10-16T08:50:00;17.20;99.90
30250;DHT22;17064;47.974;13.826;2022-10-16T08:55:04;17.30;99.90
30250;DHT22;17064;47.974;13.826;2022-10-16T09:00:14;17.40;99.90
30250;DHT22;17064;47.974;13.826;2022-10-16T09:05:36;17.50;99.90
30250;DHT22;17064;47.974;13.826;2022-10-16T09:10:51;17.60;99.90
30250;DHT22;17064;47.974;13.826;2022-10-16T09:21:31;17.70;99.90
30250;DHT22;17064;47.974;13.826;2022-10-16T09:26:32;17.60;99.90
30250;DHT22;17064;47.974;13.826;2022-10-16T09:31:36;17.60;99.90
30250;DHT22;17064;47.974;13.826;2022-10-16T09:36:43;17.70;99.90
30250;DHT22;17064;47.974;13.826;2022-10-16T09:41:45;17.80;99.90
30250;DHT22;17064;47.974;13.826;2022-10-16T09:46:46;17.80;99.90
30250;DHT22;17064;47.974;13.826;2022-10-16T09:51:46;17.80;99.90
30250;DHT22;17064;47.974;13.826;2022-10-16T09:56:48;17.80;99.90
30250;DHT22;17064;47.974;13.826;2022-10-16T10:01:55;17.90;99.90
30250;DHT22;17064;47.974;13.826;2022-10-16T10:06:57;18.00;99.90
30250;DHT22;17064;47.974;13.826;2022-10-16T10:12:02;18.00;99.90
30250;DHT22;17064;47.974;13.826;2022-10-16T10:27:17;18.20;99.90
30250;DHT22;17064;47.974;13.826;2022-10-16T10:42:59;18.60;99.90
30250;DHT22;17064;47.974;13.826;2022-10-16T11:09:46;19.20;99.90
30250;DHT22;17064;47.974;13.826;2022-10-16T11:15:25;19.30;99.90
30250;DHT22;17064;47.974;13.826;2022-10-16T11:20:32;19.50;99.90
30250;DHT22;17064;47.974;13.826;2022-10-16T11:25:34;19.70;99.90
30250;DHT22;17064;47.974;13.826;2022-10-16T11:30:50;19.90;99.90
30250;DHT22;17064;47.974;13.826;2022-10-16T11:41:19;20.30;99.90
30250;DHT22;17064;47.974;13.826;2022-10-16T11:46:24;20.50;99.90
30250;DHT22;17064;47.974;13.826;2022-10-16T11:52:10;20.90;99.90
30250;DHT22;17064;47.974;13.826;2022-10-16T11:57:27;21.10;99.90
30250;DHT22;17064;47.974;13.826;2022-10-16T12:03:00;21.20;99.90
30250;DHT22;17064;47.974;13.826;2022-10-16T12:08:12;21.30;99.90
30250;DHT22;17064;47.974;13.826;2022-10-16T12:18:29;21.20;99.90
30250;DHT22;17064;47.974;13.826;2022-10-16T12:23:30;21.20;99.90
30250;DHT22;17064;47.974;13.826;2022-10-16T12:28:32;21.20;99.90
30250;DHT22;17064;47.974;13.826;2022-10-16T12:33:36;21.30;99.90
30250;DHT22;17064;47.974;13.826;2022-10-16T12:43:49;21.50;99.90
30250;DHT22;17064;47.974;13.826;2022-10-16T12:48:50;21.60;99.90
30250;DHT22;17064;47.974;13.826;2022-10-16T13:15:54;22.20;99.90
30250;DHT22;17064;47.974;13.826;2022-10-16T13:31:37;23.00;99.90
30250;DHT22;17064;47.974;13.826;2022-10-16T13:36:50;23.20;99.90
30250;DHT22;17064;47.974;13.826;2022-10-16T13:42:24;23.10;99.90
30250;DHT22;17064;47.974;13.826;2022-10-16T13:47:28;22.70;99.90
30250;DHT22;17064;47.974;13.826;2022-10-16T13:52:29;22.50;99.90
30250;DHT22;17064;47.974;13.826;2022-10-16T13:57:30;22.20;99.90
30250;DHT22;17064;47.974;13.826;2022-10-16T14:02:33;21.80;99.90
30250;DHT22;17064;47.974;13.826;2022-10-16T14:07:35;21.60;99.90
30250;DHT22;17064;47.974;13.826;2022-10-16T14:12:36;21.40;99.90
30250;DHT22;17064;47.974;13.826;2022-10-16T14:17:50;21.10;99.90
30250;DHT22;17064;47.974;13.826;2022-10-16T14:23:22;21.00;99.90
30250;DHT22;17064;47.974;13.826;2022-10-16T14:28:24;20.80;99.90
30250;DHT22;17064;47.974;13.826;2022-10-16T14:33:34;20.60;99.90
30250;DHT22;17064;47.974;13.826;2022-10-16T14:38:35;20.60;99.90
30250;DHT22;17064;47.974;13.826;2022-10-16T14:43:39;20.50;99.90
30250;DHT22;17064;47.974;13.826;2022-10-16T14:48:42;20.50;99.90
30250;DHT22;17064;47.974;13.826;2022-10-16T14:53:44;20.60;99.90
30250;DHT22;17064;47.974;13.826;2022-10-16T14:58:45;20.60;99.90
30250;DHT22;17064;47.974;13.826;2022-10-16T15:03:45;20.50;99.90
30250;DHT22;17064;47.974;13.826;2022-10-16T15:08:46;20.30;99.90
30250;DHT22;17064;47.974;13.826;2022-10-16T15:13:47;20.00;99.90
30250;DHT22;17064;47.974;13.826;2022-10-16T15:18:47;19.90;99.90
30250;DHT22;17064;47.974;13.826;2022-10-16T15:23:49;19.80;99.90
30250;DHT22;17064;47.974;13.826;2022-10-16T15:28:51;19.70;99.90
30250;DHT22;17064;47.974;13.826;2022-10-16T15:33:53;19.60;99.90
30250;DHT22;17064;47.974;13.826;2022-10-16T15:39:03;19.50;99.90
30250;DHT22;17064;47.974;13.826;2022-10-16T15:44:04;19.40;99.90
30250;DHT22;17064;47.974;13.826;2022-10-16T15:49:05;19.20;99.90
30250;DHT22;17064;47.974;13.826;2022-10-16T15:54:06;19.00;99.90
30250;DHT22;17064;47.974;13.826;2022-10-16T15:59:06;18.80;99.90
30250;DHT22;17064;47.974;13.826;2022-10-16T16:04:07;18.60;99.90
30250;DHT22;17064;47.974;13.826;2022-10-16T16:09:08;18.50;99.90
30250;DHT22;17064;47.974;13.826;2022-10-16T16:14:13;18.40;99.90
30250;DHT22;17064;47.974;13.826;2022-10-16T16:19:14;18.20;99.90
30250;DHT22;17064;47.974;13.826;2022-10-16T16:24:16;18.00;99.90
30250;DHT22;17064;47.974;13.826;2022-10-16T16:29:17;17.70;99.90
30250;DHT22;17064;47.974;13.826;2022-10-16T16:34:18;17.40;99.90
30250;DHT22;17064;47.974;13.826;2022-10-16T16:39:19;17.30;99.90
30250;DHT22;17064;47.974;13.826;2022-10-16T16:44:20;17.10;99.90
30250;DHT22;17064;47.974;13.826;2022-10-16T16:49:21;16.90;99.90
30250;DHT22;17064;47.974;13.826;2022-10-16T16:54:22;16.70;99.90
30250;DHT22;17064;47.974;13.826;2022-10-16T16:59:23;16.50;99.90
30250;DHT22;17064;47.974;13.826;2022-10-16T17:04:24;16.30;99.90
30250;DHT22;17064;47.974;13.826;2022-10-16T17:09:25;16.20;99.90
30250;DHT22;17064;47.974;13.826;2022-10-16T17:14:26;16.00;99.90
30250;DHT22;17064;47.974;13.826;2022-10-16T17:19:28;15.90;99.90
30250;DHT22;17064;47.974;13.826;2022-10-16T17:24:29;15.70;99.90
30250;DHT22;17064;47.974;13.826;2022-10-16T17:29:30;15.50;99.90
30250;DHT22;17064;47.974;13.826;2022-10-16T17:34:31;15.50;99.90
30250;DHT22;17064;47.974;13.826;2022-10-16T17:39:32;15.40;99.90
30250;DHT22;17064;47.974;13.826;2022-10-16T17:44:35;15.30;99.90
30250;DHT22;17064;47.974;13.826;2022-10-16T17:49:36;15.20;99.90
30250;DHT22;17064;47.974;13.826;2022-10-16T17:54:37;15.10;99.90
30250;DHT22;17064;47.974;13.826;2022-10-16T17:59:39;15.00;99.90
30250;DHT22;17064;47.974;13.826;2022-10-16T18:04:41;14.90;99.90
30250;DHT22;17064;47.974;13.826;2022-10-16T18:09:43;14.70;99.90
30250;DHT22;17064;47.974;13.826;2022-10-16T18:14:44;14.50;99.90
30250;DHT22;17064;47.974;13.826;2022-10-16T18:19:46;14.30;99.90
30250;DHT22;17064;47.974;13.826;2022-10-16T18:24:47;14.20;99.90
30250;DHT22;17064;47.974;13.826;2022-10-16T18:29:48;14.20;99.90
30250;DHT22;17064;47.974;13.826;2022-10-16T18:34:49;14.10;99.90
30250;DHT22;17064;47.974;13.826;2022-10-16T18:39:50;14.00;99.90
30250;DHT22;17064;47.974;13.826;2022-10-16T18:44:53;13.90;99.90
30250;DHT22;17064;47.974;13.826;2022-10-16T18:49:55;13.80;99.90
30250;DHT22;17064;47.974;13.826;2022-10-16T18:54:57;13.80;99.90
30250;DHT22;17064;47.974;13.826;2022-10-16T18:59:58;13.70;99.90
30250;DHT22;17064;47.974;13.826;2022-10-16T19:04:59;13.60;99.90
30250;DHT22;17064;47.974;13.826;2022-10-16T19:10:01;13.60;99.90
30250;DHT22;17064;47.974;13.826;2022-10-16T19:15:03;13.50;99.90
30250;DHT22;17064;47.974;13.826;2022-10-16T19:20:05;13.50;99.90
30250;DHT22;17064;47.974;13.826;2022-10-16T19:25:07;13.40;99.90
30250;DHT22;17064;47.974;13.826;2022-10-16T19:30:08;13.30;99.90
30250;DHT22;17064;47.974;13.826;2022-10-16T19:35:09;13.30;99.90
30250;DHT22;17064;47.974;13.826;2022-10-16T19:40:12;13.20;99.90
30250;DHT22;17064;47.974;13.826;2022-10-16T19:45:13;13.10;99.90
30250;DHT22;17064;47.974;13.826;2022-10-16T19:50:14;13.10;99.90
30250;DHT22;17064;47.974;13.826;2022-10-16T19:55:15;13.10;99.90
30250;DHT22;17064;47.974;13.826;2022-10-16T20:00:18;13.00;99.90
30250;DHT22;17064;47.974;13.826;2022-10-16T20:05:19;13.00;99.90
30250;DHT22;17064;47.974;13.826;2022-10-16T20:10:20;12.90;99.90
30250;DHT22;17064;47.974;13.826;2022-10-16T20:15:21;12.90;99.90
30250;DHT22;17064;47.974;13.826;2022-10-16T20:20:22;12.80;99.90
30250;DHT22;17064;47.974;13.826;2022-10-16T20:25:22;12.70;99.90
30250;DHT22;17064;47.974;13.826;2022-10-16T20:30:23;12.60;99.90
30250;DHT22;17064;47.974;13.826;2022-10-16T20:35:24;12.60;99.90
30250;DHT22;17064;47.974;13.826;2022-10-16T20:40:25;12.60;99.90
30250;DHT22;17064;47.974;13.826;2022-10-16T20:45:26;12.50;99.90
30250;DHT22;17064;47.974;13.826;2022-10-16T20:50:30;12.40;99.90
30250;DHT22;17064;47.974;13.826;2022-10-16T20:55:34;12.40;99.90
30250;DHT22;17064;47.974;13.826;2022-10-16T21:00:37;12.30;99.90
30250;DHT22;17064;47.974;13.826;2022-10-16T21:05:41;12.20;99.90
30250;DHT22;17064;47.974;13.826;2022-10-16T21:10:42;12.20;99.90
30250;DHT22;17064;47.974;13.826;2022-10-16T21:15:43;12.10;99.90
30250;DHT22;17064;47.974;13.826;2022-10-16T21:20:43;12.00;99.90
30250;DHT22;17064;47.974;13.826;2022-10-16T21:25:48;12.00;99.90
30250;DHT22;17064;47.974;13.826;2022-10-16T21:30:49;11.90;99.90
30250;DHT22;17064;47.974;13.826;2022-10-16T21:35:49;11.90;99.90
30250;DHT22;17064;47.974;13.826;2022-10-16T21:40:50;11.90;99.90
30250;DHT22;17064;47.974;13.826;2022-10-16T21:45:53;11.80;99.90
30250;DHT22;17064;47.974;13.826;2022-10-16T21:50:54;11.80;99.90
30250;DHT22;17064;47.974;13.826;2022-10-16T21:55:54;11.70;99.90
30250;DHT22;17064;47.974;13.826;2022-10-16T22:00:55;11.60;99.90
30250;DHT22;17064;47.974;13.826;2022-10-16T22:06:00;11.60;99.90
30250;DHT22;17064;47.974;13.826;2022-10-16T22:11:16;11.60;99.90
30250;DHT22;17064;47.974;13.826;2022-10-16T22:16:21;11.50;99.90
30250;DHT22;17064;47.974;13.826;2022-10-16T22:21:22;11.40;99.90
30250;DHT22;17064;47.974;13.826;2022-10-16T22:26:23;11.40;99.90
30250;DHT22;17064;47.974;13.826;2022-10-16T22:31:24;11.30;99.90
30250;DHT22;17064;47.974;13.826;2022-10-16T22:36:25;11.20;99.90
30250;DHT22;17064;47.974;13.826;2022-10-16T22:41:26;11.10;99.90
30250;DHT22;17064;47.974;13.826;2022-10-16T22:46:29;11.00;99.90
30250;DHT22;17064;47.974;13.826;2022-10-16T22:51:30;10.90;99.90
30250;DHT22;17064;47.974;13.826;2022-10-16T22:56:30;10.80;99.90
